Latest Weather Observations for Kadina

IDS60801

Issued at 10:32 pm CDT Friday 30 January 2015 (issued every 30 minutes, with the page automatically refreshed every 10 minutes)

About weather observations | Map of weather stations | Latest weather observations for SA | Other Formats
Station Details ID: 022050 Name: KADINA AWS Lat: -33.97 Lon: 137.66 Height: 41.14 m
Data from the previous 72 hours. | See also: Recent months at Kadina
Date/Time
CDT
Temp
°C
App
Temp
°C
Dew
Point
Rel
Hum
%
Delta-T
°C
Wind Press
QNH
hPa
Press
MSL
hPa
Rain
since 9 am
mm
Dir
 
Spd
km/h
Gust
km/h
Spd
kts
Gust
kts
30/10:30pm 16.4 12.6 11.1 71 2.8 SSE 22 32 12 17 1014.5 - 0.0
30/10:00pm 16.6 12.3 10.9 69 3.1 SSE 24 33 13 18 1014.3 - 0.0
30/09:30pm 17.3 12.2 10.7 65 3.5 SSE 28 39 15 21 1014.4 - 0.0
30/09:00pm 18.3 12.8 9.1 55 4.8 SSE 28 43 15 23 1014.0 1013.7 0.0
30/08:30pm 20.0 14.1 6.0 40 7.0 S 26 39 14 21 1013.6 - 0.0
30/08:00pm 22.2 15.7 4.7 32 8.6 SSE 28 37 15 20 1013.4 - 0.0
30/07:30pm 24.0 18.0 7.2 34 8.8 SSE 28 39 15 21 1013.1 - 0.0
30/07:00pm 25.6 20.0 7.2 31 9.7 SSE 26 35 14 19 1012.8 - 0.0
30/06:30pm 27.1 21.4 6.5 27 10.8 SSE 26 35 14 19 1012.5 - 0.0
30/06:00pm 27.4 21.1 5.6 25 11.3 SSE 28 37 15 20 1012.5 1012.2 0.0
30/05:30pm 28.2 22.0 2.4 19 12.7 SSE 24 35 13 19 1012.4 - 0.0
30/05:00pm 28.7 22.2 0.4 16 13.5 SSE 24 39 13 21 1012.4 - 0.0
30/04:30pm 29.1 22.3 0.7 16 13.7 SSE 26 41 14 22 1012.4 - 0.0
30/04:00pm 29.6 23.1 2.8 18 13.4 SSE 26 37 14 20 1012.6 - 0.0
30/03:30pm 29.4 22.9 2.6 18 13.4 SSE 26 37 14 20 1012.8 - 0.0
30/03:00pm 29.5 23.9 3.5 19 13.2 SSE 22 39 12 21 1013.1 1012.8 0.0
30/02:30pm 30.2 25.0 5.5 21 13.0 SSE 22 35 12 19 1013.5 - 0.0
30/02:00pm 30.0 25.3 5.3 21 12.9 SSE 19 32 10 17 1013.7 - 0.0
30/01:30pm 30.0 25.1 5.3 21 12.9 SE 20 32 11 17 1014.1 - 0.0
30/01:00pm 28.6 23.3 4.8 22 12.3 SE 22 33 12 18 1014.4 - 0.0
30/12:30pm 28.4 24.2 5.9 24 11.8 SE 17 28 9 15 1014.8 - 0.0
30/12:00pm 28.1 23.2 5.0 23 11.9 SE 20 30 11 16 1015.0 1014.7 0.0
30/11:30am 27.7 22.5 5.3 24 11.6 SE 22 35 12 19 1015.1 - 0.0
30/11:00am 28.4 23.2 5.3 23 12.0 E 22 32 12 17 1015.2 - 0.0
30/10:30am 27.3 22.5 5.6 25 11.2 E 20 26 11 14 1015.3 - 0.0
30/10:00am 25.7 20.3 6.3 29 10.1 E 24 32 13 17 1015.4 - 0.0
30/09:30am 24.0 18.1 5.8 31 9.3 E 26 32 14 17 1015.5 - 0.0
30/09:00am 22.7 17.0 6.9 36 8.1 ESE 26 32 14 17 1015.5 1015.2 0.0
30/08:30am 20.8 14.5 7.4 42 6.9 ESE 30 39 16 21 1015.5 - 0.0
30/08:00am 19.1 13.4 8.4 50 5.5 ESE 28 35 15 19 1015.3 - 0.0
30/07:30am 17.2 13.0 9.6 61 4.0 ESE 22 30 12 16 1014.8 - 0.0
30/07:00am 15.7 11.5 9.8 68 3.1 ESE 22 26 12 14 1014.5 - 0.0
30/06:30am 15.9 12.3 10.4 70 2.9 ESE 20 28 11 15 1014.3 - 0.0
30/06:00am 16.4 12.6 11.3 72 2.8 ESE 22 28 12 15 1014.0 1013.7 0.0
30/05:30am 16.7 13.3 12.5 76 2.3 SE 22 28 12 15 1013.8 - 0.0
30/05:00am 17.0 13.8 14.3 84 1.5 ESE 24 30 13 16 1013.7 - 0.0
30/04:30am 17.2 14.2 14.7 85 1.4 SE 24 33 13 18 1013.6 - 0.0
30/04:00am 17.5 13.8 15.1 86 1.4 SE 28 37 15 20 1013.5 - 0.0
30/03:30am 17.6 13.5 15.0 85 1.5 SE 30 39 16 21 1013.5 - 0.0
30/03:00am 17.7 14.0 15.0 84 1.6 SE 28 35 15 19 1013.7 1013.4 0.0
30/02:30am 17.8 13.7 14.9 83 1.7 SE 30 41 16 22 1013.8 - 0.0
30/02:00am 17.8 13.6 14.7 82 1.8 SE 30 37 16 20 1013.9 - 0.0
30/01:30am 18.0 13.4 14.7 81 1.9 SE 32 41 17 22 1014.1 - 0.0
30/01:00am 18.2 13.0 14.5 79 2.1 SE 35 44 19 24 1014.1 - 0.0
30/12:30am 18.4 13.1 14.3 77 2.4 SE 35 46 19 25 1014.3 - 0.0
30/12:00am 18.7 13.4 14.2 75 2.6 SE 35 46 19 25 1014.4 1014.1 0.0
 
Date/Time
CDT
Temp
°C
App
Temp
°C
Dew
Point
Rel
Hum
%
Delta-T
°C
Wind Press
QNH
hPa
Press
MSL
hPa
Rain
since 9 am
mm
Dir
 
Spd
km/h
Gust
km/h
Spd
kts
Gust
kts
29/11:30pm 18.9 13.6 14.2 74 2.7 SE 35 46 19 25 1014.6 - 0.0
29/11:00pm 19.1 13.2 14.6 75 2.6 SE 39 50 21 27 1014.5 - 0.0
29/10:30pm 19.2 14.0 14.5 74 2.7 SE 35 46 19 25 1014.5 - 0.0
29/10:00pm 19.4 14.1 14.2 72 3.0 SE 35 48 19 26 1014.4 - 0.0
29/09:30pm 19.9 14.7 13.4 66 3.7 SE 33 50 18 27 1014.2 - 0.0
29/09:00pm 20.5 15.2 12.5 60 4.5 SE 32 41 17 22 1014.1 1013.8 0.0
29/08:30pm 21.8 16.5 11.2 51 5.9 SSE 30 43 16 23 1014.0 - 0.0
29/08:00pm 23.9 17.2 8.3 37 8.3 SSE 33 46 18 25 1013.7 - 0.0
29/07:30pm 26.5 19.2 4.3 24 11.2 SSE 32 41 17 22 1013.6 - 0.0
29/07:00pm 28.2 20.6 3.1 20 12.5 SE 32 39 17 21 1013.2 - 0.0
29/06:30pm 29.5 22.8 3.5 19 13.2 SE 28 37 15 20 1013.1 - 0.0
29/06:00pm 29.7 23.0 3.6 19 13.3 SSE 28 37 15 20 1013.2 1012.9 0.0
29/05:30pm 30.3 24.5 2.5 17 13.9 ESE 22 32 12 17 1013.3 - 0.0
29/05:00pm 30.8 25.5 2.9 17 14.1 ESE 20 30 11 16 1013.4 - 0.0
29/04:30pm 30.0 24.1 1.5 16 14.0 ESE 22 32 12 17 1013.7 - 0.0
29/04:00pm 30.5 24.6 1.9 16 14.2 SE 22 33 12 18 1013.9 - 0.0
29/03:30pm 30.4 25.3 0.9 15 14.4 SE 17 35 9 19 1014.2 - 0.0
29/03:00pm 30.3 24.2 2.5 17 13.9 SE 24 32 13 17 1014.4 1014.1 0.0
29/02:30pm 30.4 24.9 4.2 19 13.5 SSE 22 33 12 18 1014.7 - 0.0
29/02:00pm 30.8 26.2 3.8 18 13.8 ESE 17 26 9 14 1015.1 - 0.0
29/01:30pm 29.7 24.5 3.6 19 13.3 ESE 20 35 11 19 1015.3 - 0.0
29/01:00pm 29.9 24.9 4.5 20 13.1 SE 20 32 11 17 1015.6 - 0.0
29/12:30pm 29.2 23.4 4.6 21 12.7 ESE 24 35 13 19 1015.8 - 0.0
29/12:00pm 29.1 23.7 6.5 24 12.0 E 24 35 13 19 1016.1 1015.9 0.0
29/11:30am 27.8 22.4 8.1 29 10.7 ESE 26 37 14 20 1016.3 - 0.0
29/11:00am 26.5 21.1 8.0 31 9.9 E 26 37 14 20 1016.5 - 0.0
29/10:30am 26.1 20.3 8.1 32 9.7 E 28 35 15 19 1016.6 - 0.0
29/10:00am 25.0 19.3 8.5 35 8.9 E 28 41 15 22 1016.4 - 0.0
29/09:30am 23.8 18.5 8.6 38 8.1 ESE 26 35 14 19 1016.4 - 0.0
29/09:00am 22.5 17.0 9.3 43 7.1 ESE 28 37 15 20 1016.4 1016.2 0.0
29/08:30am 20.6 14.8 9.5 49 5.9 ESE 30 37 16 20 1016.2 - 0.0
29/08:00am 19.2 13.9 9.9 55 5.0 ESE 28 39 15 21 1016.0 - 0.0
29/07:30am 17.5 13.2 10.6 64 3.7 ESE 24 33 13 18 1015.7 - 0.0
29/07:00am 15.4 11.6 11.2 76 2.2 ESE 22 26 12 14 1015.4 - 0.0
29/06:30am 15.1 12.0 12.1 82 1.6 ESE 20 24 11 13 1015.1 - 0.0
29/06:00am 15.6 12.8 13.1 85 1.4 ESE 20 26 11 14 1015.0 1014.7 0.0
29/05:30am 15.9 13.4 14.1 89 1.0 ESE 20 26 11 14 1014.7 - 0.0
29/05:00am 16.0 13.2 14.4 90 0.9 ESE 22 28 12 15 1014.5 - 0.0
29/04:30am 16.4 13.5 15.1 92 0.8 SE 24 30 13 16 1014.4 - 0.0
29/04:00am 16.5 14.0 15.2 92 0.8 SE 22 30 12 16 1014.4 - 0.0
29/03:30am 16.5 13.9 15.0 91 0.9 SE 22 32 12 17 1014.6 - 0.0
29/03:00am 16.3 14.2 14.8 91 0.9 SE 19 24 10 13 1014.9 1014.6 0.0
29/02:30am 16.2 13.9 14.7 91 0.9 SE 20 28 11 15 1015.0 - 0.0
29/02:00am 15.8 13.9 14.3 91 0.9 SSE 17 24 9 13 1015.3 - 0.0
29/01:30am 15.9 14.0 14.3 90 0.9 SE 17 22 9 12 1015.5 - 0.0
29/01:00am 16.7 14.6 14.7 88 1.2 SSE 19 26 10 14 1015.9 - 0.0
29/12:30am 16.6 14.3 14.2 86 1.4 SSE 19 26 10 14 1016.0 - 0.0
29/12:00am 16.8 14.0 14.3 85 1.4 SE 22 30 12 16 1016.0 1015.8 0.0
 
Date/Time
CDT
Temp
°C
App
Temp
°C
Dew
Point
Rel
Hum
%
Delta-T
°C
Wind Press
QNH
hPa
Press
MSL
hPa
Rain
since 9 am
mm
Dir
 
Spd
km/h
Gust
km/h
Spd
kts
Gust
kts
28/11:30pm 16.9 13.6 14.0 83 1.7 SE 24 32 13 17 1016.0 - 0.0
28/11:00pm 17.2 13.1 13.9 81 1.9 SE 28 37 15 20 1015.9 - 0.0
28/10:30pm 17.4 12.4 13.5 78 2.2 SE 32 44 17 24 1015.7 - 0.0
28/10:00pm 17.5 12.4 13.2 76 2.4 SE 32 43 17 23 1015.8 - 0.0
28/09:30pm 17.8 13.3 12.7 72 2.8 SSE 28 39 15 21 1015.7 - 0.0
28/09:00pm 18.1 13.0 11.9 67 3.4 SSE 30 39 16 21 1015.5 1015.2 0.0
28/08:30pm 19.1 14.2 11.2 60 4.3 SSE 28 37 15 20 1015.5 - 0.0
28/08:00pm 20.7 15.1 10.2 51 5.7 SSE 30 39 16 21 1015.1 - 0.0
28/07:30pm 21.9 15.7 9.4 45 6.7 SSE 32 43 17 23 1015.0 - 0.0
28/07:00pm 23.2 16.9 8.9 40 7.7 SSE 32 41 17 22 1014.7 - 0.0
28/06:30pm 24.3 18.8 7.4 34 8.9 SSE 26 35 14 19 1014.6 - 0.0
28/06:00pm 24.9 19.7 7.1 32 9.3 SSE 24 35 13 19 1014.7 1014.4 0.0
28/05:30pm 24.5 18.5 7.2 33 9.1 SSE 28 37 15 20 1014.8 - 0.0
28/05:00pm 24.3 19.0 7.0 33 9.0 SE 24 39 13 21 1015.0 - 0.0
28/04:30pm 25.0 19.0 7.2 32 9.4 SSE 28 39 15 21 1015.1 - 0.0
28/04:00pm 25.4 19.5 7.5 32 9.5 SSE 28 37 15 20 1015.3 - 0.0
28/03:30pm 25.3 19.4 6.0 29 9.9 SE 26 41 14 22 1015.4 - 0.0
28/03:00pm 24.5 18.9 5.3 29 9.7 SSE 24 33 13 18 1015.8 1015.6 0.0
28/02:30pm 23.9 18.3 5.3 30 9.4 S 24 33 13 18 1016.2 - 0.0
28/02:00pm 23.4 17.4 5.3 31 9.1 SSE 26 33 14 18 1016.6 - 0.0
28/01:30pm 22.6 18.1 6.8 36 8.1 S 20 35 11 19 1016.9 - 0.0
28/01:00pm 23.1 18.2 6.8 35 8.4 SE 22 33 12 18 1017.2 - 0.0
28/12:30pm 21.3 15.8 6.0 37 7.7 SE 24 37 13 20 1017.4 - 0.0
28/12:00pm 20.7 15.6 5.9 38 7.4 ESE 22 39 12 21 1017.7 1017.5 0.0
28/11:30am 20.2 15.7 6.9 42 6.7 SE 20 32 11 17 1017.7 - 0.0
28/11:00am 20.1 15.9 7.5 44 6.5 SE 19 35 10 19 1018.0 - 0.0
28/10:30am 19.2 13.8 6.3 43 6.4 ESE 24 41 13 22 1018.2 - 0.0
28/10:00am 18.9 12.6 7.4 47 5.8 ESE 30 41 16 22 1018.1 - 0.0
28/09:30am 18.1 10.9 7.8 51 5.2 ESE 35 46 19 25 1017.9 - 0.0
28/09:00am 17.8 10.8 8.6 55 4.7 ESE 35 48 19 26 1017.7 1017.5 0.0
28/08:30am 17.0 10.0 8.4 57 4.4 ESE 35 46 19 25 1017.3 - 0.0
28/08:00am 16.1 10.0 8.1 59 4.0 ESE 30 43 16 23 1016.8 - 0.0
28/07:30am 14.7 9.3 8.2 65 3.3 ESE 26 33 14 18 1016.5 - 0.0
28/07:00am 13.4 8.0 7.8 69 2.8 ESE 26 30 14 16 1016.4 - 0.0
28/06:30am 13.0 8.3 7.9 71 2.5 ESE 22 28 12 15 1016.1 - 0.0
28/06:00am 13.3 9.1 8.4 72 2.4 ESE 20 26 11 14 1016.0 1015.8 0.0
28/05:30am 13.9 8.7 8.9 72 2.5 ESE 26 32 14 17 1015.7 - 0.0
28/05:00am 14.4 9.0 9.4 72 2.6 ESE 28 37 15 20 1015.5 - 0.0
28/04:30am 14.5 10.9 10.7 78 2.0 ESE 20 32 11 17 1015.6 - 0.0
28/04:00am 14.7 11.4 10.9 78 2.0 SE 19 26 10 14 1015.6 - 0.0
28/03:30am 14.7 11.5 11.1 79 1.9 SE 19 24 10 13 1015.7 - 0.0
28/03:00am 14.7 11.2 10.9 78 2.0 SE 20 24 11 13 1015.9 1015.7 0.0
28/02:30am 14.2 10.9 10.8 80 1.8 SSE 19 22 10 12 1016.1 - 0.0
28/02:00am 14.0 10.9 10.2 78 2.0 SSE 17 20 9 11 1016.5 - 0.0
28/01:30am 14.1 10.9 10.1 77 2.1 SSE 17 20 9 11 1017.1 - 0.0
28/01:00am 14.7 11.0 10.1 74 2.4 SSE 20 26 11 14 1017.3 - 0.0
28/12:30am 14.8 10.7 10.0 73 2.5 SSE 22 28 12 15 1017.2 - 0.0
28/12:00am 15.1 10.9 9.9 71 2.7 SSE 22 30 12 16 1017.4 1017.2 0.0
 
Date/Time
CDT
Temp
°C
App
Temp
°C
Dew
Point
Rel
Hum
%
Delta-T
°C
Wind Press
QNH
hPa
Press
MSL
hPa
Rain
since 9 am
mm
Dir
 
Spd
km/h
Gust
km/h
Spd
kts
Gust
kts
27/11:30pm 15.5 11.3 9.6 68 3.1 SSE 22 32 12 17 1017.7 - 0.0
27/11:00pm 15.5 11.5 9.2 66 3.2 SSE 20 26 11 14 1017.6 - 0.0

Other Formats:

Comma delimited format used in spreadsheet applications
http://www.bom.gov.au/fwo/IDS60801/IDS60801.94685.axf

JavaScript Object Notation format (JSON) in row-major order
http://www.bom.gov.au/fwo/IDS60801/IDS60801.94685.json